Overview Statistics Trail Chart Weather Telemetry Raw packets
 

This is the latest recevied weather packets stored in our database for station/object N9BID. If no packets are shown the sender has not sent any weather packets the latest 10 day(s).

<< 104 105 106 107 108 109 110 >>
Time Temp. Humidity Pressure Rain* Wind** Luminosity Snow
1787780088 19.44° C 98% 1012.7 hPa 0 mm - 139 W/m² -
1787779783 19.44° C 97% 1013 hPa 1.78 mm - 104 W/m² -
1787779486 18.89° C 97% 1012.8 hPa 1.78 mm - 77 W/m² -
1787779182 19.44° C 96% 1013 hPa 0 mm - 42 W/m² -
1787778877 20° C 94% 1013 hPa 0 mm - 62 W/m² -
1787778573 20.56° C 90% 1013 hPa 0 mm - 39 W/m² -
1787778268 21.11° C 86% 1012.9 hPa 0 mm - 54 W/m² -
1787777968 22.78° C 78% 1012.6 hPa 0 mm - 92 W/m² -
1787777667 23.33° C 77% 1012.7 hPa 0 mm - 163 W/m² -
1787777362 22.78° C 77% 1012.7 hPa 0 mm - 177 W/m² -
1787777064 22.78° C 78% 1012.5 hPa 0 mm - 159 W/m² -
1787776758 23.33° C 77% 1012.5 hPa 0 mm - 133 W/m² -
1787776457 23.89° C 74% 1012.3 hPa 0 mm - 188 W/m² -
1787776154 23.33° C 78% 1012.6 hPa 0 mm - 239 W/m² -
1787775849 22.78° C 79% 1012.4 hPa 0 mm - 180 W/m² -
1787775544 22.78° C 77% 1012.4 hPa 0 mm - 118 W/m² -
1787775243 23.33° C 75% 1012.2 hPa 0 mm - 127 W/m² -
1787774948 23.89° C 75% 1012.6 hPa 0 mm - 190 W/m² -
1787774642 23.89° C 73% 1012 hPa 0 mm - 256 W/m² -
1787774336 23.89° C 74% 1012.3 hPa 0 mm - 133 W/m² -
1787774031 23.33° C 75% 1012.1 hPa 0 mm - 87 W/m² -
1787773730 23.33° C 77% 1012.2 hPa 0 mm - 87 W/m² -
1787773424 23.33° C 76% 1012.5 hPa 0 mm - 108 W/m² -
1787773124 22.78° C 77% 1012.3 hPa 0 mm - 116 W/m² -
1787772820 23.33° C 76% 1012.3 hPa 0 mm - 127 W/m² -

* Rain latest hour (hover to see other rain measurements)
** Current wind speed in m/s (hover to see current wind gust speed)